Minerva, Iowa
Current Conditions -  °F | °C
As of 3:53 PM on Saturday 25 Oct 2014 (Local Time) from KMIW Reporting Station
Clear Clear  
Wind Chill: 68°   Ceiling: Unl
Heat Index: 68°   Visibility: 10mi
Dew Point: 35°   Wind: 14mph
Humidity: 30%   Direction: 310°NW
Pressure: 30.06"   Gusts: NA
Location:  42.1247°N, 93.0244°W
Report Text: KMIW 252053Z AUTO 31012KT 10SM CLR 20/02 A3006 RMK AO2 SLP179 T02000017 56009
Loading
Personal Weather Stations






























Interactive Weather Map
Tropical Storm Tracking
New forecast layout! Learn more

10-Day Weather Forecast

Advertisements
Track Severe Weather on mobile